createdAt,value
2019-06-20T00:00:45.175Z,18.22
2019-06-20T00:01:45.178Z,18.19
2019-06-20T00:02:45.180Z,18.22
2019-06-20T00:03:45.181Z,18.23
2019-06-20T00:04:45.182Z,18.18
2019-06-20T00:05:45.183Z,18.22
2019-06-20T00:06:45.186Z,18.19
2019-06-20T00:07:45.189Z,18.13
2019-06-20T00:08:45.188Z,18.05
2019-06-20T00:09:45.190Z,18.16
2019-06-20T00:10:45.192Z,18.18
2019-06-20T00:11:45.193Z,18.15
2019-06-20T00:12:59.582Z,18.22
2019-06-20T00:13:45.194Z,18.29
2019-06-20T00:14:45.197Z,18.19
2019-06-20T00:15:45.199Z,18.28
2019-06-20T00:16:45.198Z,18.18
2019-06-20T00:17:45.201Z,18.13
2019-06-20T00:18:45.202Z,18.25
2019-06-20T00:19:45.201Z,18.11
2019-06-20T00:20:45.203Z,18.19
2019-06-20T00:21:45.205Z,18.18
2019-06-20T00:22:45.206Z,18.20
2019-06-20T00:23:45.208Z,18.22
2019-06-20T00:24:45.210Z,18.23
2019-06-20T00:25:45.211Z,18.13
2019-06-20T00:26:45.211Z,18.18
2019-06-20T00:27:45.214Z,18.08
2019-06-20T00:28:45.214Z,18.19
2019-06-20T00:29:45.217Z,18.04
2019-06-20T00:30:45.219Z,18.04
2019-06-20T00:31:45.217Z,18.01
2019-06-20T00:32:45.295Z,18.03
2019-06-20T00:33:45.220Z,18.10
2019-06-20T00:34:45.221Z,18.08
2019-06-20T00:35:45.228Z,18.07
2019-06-20T00:36:45.229Z,18.05
2019-06-20T00:37:45.227Z,18.13
2019-06-20T00:38:45.229Z,17.98
2019-06-20T00:39:45.229Z,18.07
2019-06-20T00:40:45.228Z,18.03
2019-06-20T00:41:45.229Z,17.98
2019-06-20T00:42:45.232Z,17.92
2019-06-20T00:43:45.236Z,17.92
2019-06-20T00:44:45.235Z,17.90
2019-06-20T00:45:45.236Z,17.90
2019-06-20T00:46:45.236Z,17.97
2019-06-20T00:47:45.237Z,17.90
2019-06-20T00:48:45.239Z,17.97
2019-06-20T00:49:45.246Z,17.94
2019-06-20T00:50:45.242Z,17.89
2019-06-20T00:51:45.243Z,17.90
2019-06-20T00:52:45.255Z,17.89
2019-06-20T00:53:45.245Z,18.00
2019-06-20T00:54:45.245Z,17.94
2019-06-20T00:55:45.246Z,18.03
2019-06-20T00:56:45.249Z,17.97
2019-06-20T00:57:45.251Z,17.92
2019-06-20T00:58:45.257Z,17.97
2019-06-20T00:59:45.251Z,18.07
2019-06-20T01:00:45.254Z,18.08
2019-06-20T01:01:45.256Z,18.00
2019-06-20T01:02:45.263Z,18.04
2019-06-20T01:03:45.256Z,18.07
2019-06-20T01:04:45.258Z,18.04
2019-06-20T01:05:45.261Z,18.05
2019-06-20T01:06:45.262Z,18.07
2019-06-20T01:07:45.270Z,18.04
2019-06-20T01:08:45.265Z,18.20
2019-06-20T01:09:45.266Z,18.20
2019-06-20T01:10:45.267Z,18.04
2019-06-20T01:11:45.271Z,18.11
2019-06-20T01:12:45.272Z,18.07
2019-06-20T01:13:45.373Z,18.04
2019-06-20T01:14:45.272Z,18.03
2019-06-20T01:15:45.275Z,17.95
2019-06-20T01:16:45.286Z,17.94
2019-06-20T01:17:45.276Z,17.94
2019-06-20T01:18:45.276Z,17.97
2019-06-20T01:19:45.278Z,17.92
2019-06-20T01:20:45.284Z,18.00
2019-06-20T01:21:45.284Z,18.11
2019-06-20T01:22:45.288Z,18.10
2019-06-20T01:23:45.283Z,18.08
2019-06-20T01:24:45.285Z,18.04
2019-06-20T01:25:45.288Z,18.15
2019-06-20T01:26:45.287Z,18.20
2019-06-20T01:27:45.288Z,18.25
2019-06-20T01:28:45.288Z,18.28
2019-06-20T01:29:45.291Z,18.18
2019-06-20T01:30:45.291Z,18.31
2019-06-20T01:31:45.291Z,18.25
2019-06-20T01:32:45.295Z,18.26
2019-06-20T01:33:45.296Z,18.25
2019-06-20T01:34:45.297Z,18.26
2019-06-20T01:35:45.297Z,18.25
2019-06-20T01:36:45.298Z,18.20
2019-06-20T01:37:45.300Z,18.19
2019-06-20T01:38:45.302Z,18.18
2019-06-20T01:39:45.304Z,18.25
2019-06-20T01:40:45.306Z,18.18
2019-06-20T01:41:45.307Z,18.19
2019-06-20T01:42:45.307Z,18.19
2019-06-20T01:43:50.693Z,18.20
2019-06-20T01:44:45.320Z,18.25
2019-06-20T01:45:45.312Z,18.22
2019-06-20T01:46:45.312Z,18.16
2019-06-20T01:47:45.313Z,18.07
2019-06-20T01:48:45.322Z,18.11
2019-06-20T01:49:45.317Z,18.07
2019-06-20T01:50:45.315Z,18.18
2019-06-20T01:51:45.323Z,18.07
2019-06-20T01:52:45.321Z,18.18
2019-06-20T01:53:45.321Z,18.08
2019-06-20T01:54:45.320Z,18.07
2019-06-20T01:55:45.327Z,18.18
2019-06-20T01:56:45.332Z,18.08
2019-06-20T01:57:45.325Z,18.16
2019-06-20T01:58:45.324Z,18.16
2019-06-20T01:59:45.325Z,18.18
2019-06-20T02:00:45.328Z,18.19
2019-06-20T02:01:45.332Z,18.10
2019-06-20T02:02:45.331Z,18.11
2019-06-20T02:03:45.329Z,18.07
2019-06-20T02:04:45.330Z,18.11
2019-06-20T02:05:45.334Z,18.08
2019-06-20T02:06:45.340Z,18.04
2019-06-20T02:07:45.333Z,18.08
2019-06-20T02:08:45.334Z,18.07
2019-06-20T02:09:45.342Z,18.03
2019-06-20T02:10:45.342Z,18.04
2019-06-20T02:11:45.338Z,18.00
2019-06-20T02:12:45.339Z,18.05
2019-06-20T02:13:45.360Z,18.03
2019-06-20T02:14:45.343Z,18.01
2019-06-20T02:15:45.341Z,17.95
2019-06-20T02:16:45.386Z,18.08
2019-06-20T02:17:45.347Z,18.05
2019-06-20T02:18:45.345Z,18.11
2019-06-20T02:19:45.350Z,18.03
2019-06-20T02:20:45.350Z,18.08
2019-06-20T02:21:45.348Z,18.13
2019-06-20T02:22:45.350Z,18.04
2019-06-20T02:23:45.350Z,18.05
2019-06-20T02:24:45.358Z,18.05
2019-06-20T02:25:45.353Z,18.20
2019-06-20T02:26:45.360Z,18.08
2019-06-20T02:27:45.355Z,18.20
2019-06-20T02:28:45.355Z,18.07
2019-06-20T02:29:45.381Z,18.20
2019-06-20T02:30:45.358Z,18.19
2019-06-20T02:31:45.363Z,18.16
2019-06-20T02:32:45.361Z,18.22
2019-06-20T02:33:45.361Z,18.22
2019-06-20T02:34:45.369Z,18.13
2019-06-20T02:35:45.364Z,18.20
2019-06-20T02:36:45.365Z,18.23
2019-06-20T02:37:45.367Z,18.16
2019-06-20T02:38:45.366Z,18.26
2019-06-20T02:39:45.454Z,18.10
2019-06-20T02:40:45.376Z,18.22
2019-06-20T02:41:45.371Z,18.22
2019-06-20T02:42:45.446Z,18.29
2019-06-20T02:43:45.374Z,18.23
2019-06-20T02:44:45.374Z,18.26
2019-06-20T02:45:45.389Z,18.23
2019-06-20T02:46:45.377Z,18.23
2019-06-20T02:47:45.377Z,18.22
2019-06-20T02:48:45.380Z,18.22
2019-06-20T02:49:45.380Z,18.26
2019-06-20T02:50:45.379Z,18.23
2019-06-20T02:51:45.384Z,18.25
2019-06-20T02:52:45.383Z,18.28
2019-06-20T02:53:45.404Z,18.29
2019-06-20T02:54:45.384Z,18.34
2019-06-20T02:55:45.387Z,18.25
2019-06-20T02:56:45.386Z,18.31
2019-06-20T02:57:45.390Z,18.29
2019-06-20T02:58:45.389Z,18.22
2019-06-20T02:59:45.390Z,18.19
2019-06-20T03:00:45.393Z,18.25
2019-06-20T03:01:45.393Z,18.23
2019-06-20T03:02:45.393Z,18.22
2019-06-20T03:03:45.395Z,18.23
2019-06-20T03:04:45.760Z,18.25
2019-06-20T03:05:45.397Z,18.26
2019-06-20T03:06:45.400Z,18.23
2019-06-20T03:07:45.399Z,18.23
2019-06-20T03:08:45.401Z,18.22
2019-06-20T03:09:45.405Z,18.31
2019-06-20T03:10:45.404Z,18.31
2019-06-20T03:11:45.405Z,18.25
2019-06-20T03:12:45.404Z,18.33
2019-06-20T03:13:45.406Z,18.31
2019-06-20T03:14:45.951Z,18.34
2019-06-20T03:15:45.439Z,18.33
2019-06-20T03:16:45.409Z,18.35
2019-06-20T03:17:45.412Z,18.35
2019-06-20T03:18:45.413Z,18.37
2019-06-20T03:19:45.421Z,18.34
2019-06-20T03:20:45.467Z,18.34
2019-06-20T03:21:45.415Z,18.37
2019-06-20T03:22:45.417Z,18.33
2019-06-20T03:23:45.418Z,18.37
2019-06-20T03:24:45.419Z,18.38
2019-06-20T03:25:45.420Z,18.37
2019-06-20T03:26:45.422Z,18.40
2019-06-20T03:27:45.440Z,18.41
2019-06-20T03:28:45.425Z,18.34
2019-06-20T03:29:45.425Z,18.35
2019-06-20T03:30:45.427Z,18.47
2019-06-20T03:31:45.427Z,18.38
2019-06-20T03:32:45.429Z,18.43
2019-06-20T03:33:45.430Z,18.34
2019-06-20T03:34:45.430Z,18.37
2019-06-20T03:35:45.432Z,18.40
2019-06-20T03:36:45.433Z,18.40
2019-06-20T03:37:45.433Z,18.37
2019-06-20T03:38:45.434Z,18.35
2019-06-20T03:39:45.436Z,18.37
2019-06-20T03:40:45.437Z,18.41
2019-06-20T03:41:45.440Z,18.43
2019-06-20T03:42:45.479Z,18.44
2019-06-20T03:43:45.439Z,18.49
2019-06-20T03:44:58.413Z,18.40
2019-06-20T03:45:45.458Z,18.44
2019-06-20T03:46:45.443Z,18.45
2019-06-20T03:47:45.444Z,18.45
2019-06-20T03:48:45.446Z,18.44
2019-06-20T03:49:45.449Z,18.40
2019-06-20T03:50:45.447Z,18.37
2019-06-20T03:51:45.449Z,18.44
2019-06-20T03:52:45.450Z,18.47
2019-06-20T03:53:45.454Z,18.41
2019-06-20T03:54:45.458Z,18.35
2019-06-20T03:55:45.453Z,18.49
2019-06-20T03:56:45.458Z,18.44
2019-06-20T03:57:45.461Z,18.43
2019-06-20T03:58:45.467Z,18.41
2019-06-20T03:59:45.502Z,18.47
2019-06-20T04:00:45.489Z,18.41
2019-06-20T04:01:48.909Z,18.45
2019-06-20T04:02:45.468Z,18.33
2019-06-20T04:03:45.462Z,18.40
2019-06-20T04:04:45.463Z,18.44
2019-06-20T04:05:45.466Z,18.40
2019-06-20T04:06:45.481Z,18.37
2019-06-20T04:07:45.479Z,18.38
2019-06-20T04:08:45.469Z,18.35
2019-06-20T04:09:45.471Z,18.41
2019-06-20T04:10:45.471Z,18.37
2019-06-20T04:11:45.472Z,18.40
2019-06-20T04:12:45.472Z,18.43
2019-06-20T04:13:45.473Z,18.43
2019-06-20T04:14:48.757Z,18.40
2019-06-20T04:15:45.474Z,18.38
2019-06-20T04:16:45.481Z,18.41
2019-06-20T04:17:45.478Z,18.40
2019-06-20T04:18:45.483Z,18.45
2019-06-20T04:19:45.500Z,18.41
2019-06-20T04:20:45.482Z,18.44
2019-06-20T04:21:45.492Z,18.41
2019-06-20T04:22:45.485Z,18.49
2019-06-20T04:23:45.487Z,18.41
2019-06-20T04:24:45.486Z,18.49
2019-06-20T04:25:45.490Z,18.47
2019-06-20T04:26:45.488Z,18.59
2019-06-20T04:27:45.492Z,18.52
2019-06-20T04:28:45.493Z,18.65
2019-06-20T04:29:45.493Z,18.56
2019-06-20T04:30:45.493Z,18.59
2019-06-20T04:31:45.493Z,18.55
2019-06-20T04:32:45.495Z,18.47
2019-06-20T04:33:45.502Z,18.47
2019-06-20T04:34:45.510Z,18.43
2019-06-20T04:35:45.497Z,18.50
2019-06-20T04:36:48.048Z,18.50
2019-06-20T04:37:45.500Z,18.45
2019-06-20T04:38:45.509Z,18.49
2019-06-20T04:39:45.507Z,18.44
2019-06-20T04:40:45.507Z,18.47
2019-06-20T04:41:45.505Z,18.50
2019-06-20T04:42:45.509Z,18.52
2019-06-20T04:43:45.520Z,18.47
2019-06-20T04:44:45.517Z,18.56
2019-06-20T04:45:45.512Z,18.63
2019-06-20T04:46:45.513Z,18.65
2019-06-20T04:47:45.512Z,18.55
2019-06-20T04:48:45.513Z,18.56
2019-06-20T04:49:45.521Z,18.58
2019-06-20T04:50:45.526Z,18.71
2019-06-20T04:51:45.518Z,18.70
2019-06-20T04:52:45.547Z,18.74
2019-06-20T04:53:45.521Z,18.77
2019-06-20T04:54:45.522Z,18.83
2019-06-20T04:55:45.522Z,18.86
2019-06-20T04:56:45.572Z,18.96
2019-06-20T04:57:45.533Z,18.90
2019-06-20T04:58:45.528Z,19.04
2019-06-20T04:59:45.529Z,18.99
2019-06-20T05:00:45.534Z,18.90
2019-06-20T05:01:45.534Z,18.90
2019-06-20T05:02:45.535Z,18.89
2019-06-20T05:03:45.611Z,18.89
2019-06-20T05:04:45.597Z,18.96
2019-06-20T05:05:45.538Z,18.98
2019-06-20T05:06:45.541Z,18.89
2019-06-20T05:07:45.542Z,19.07
2019-06-20T05:08:45.545Z,19.04
2019-06-20T05:09:45.545Z,19.02
2019-06-20T05:10:45.546Z,19.02
2019-06-20T05:11:45.548Z,19.00
2019-06-20T05:12:45.549Z,19.00
2019-06-20T05:13:45.567Z,19.08
2019-06-20T05:14:45.554Z,19.11
2019-06-20T05:15:52.512Z,19.08
2019-06-20T05:16:45.557Z,19.22
2019-06-20T05:17:45.560Z,19.19
2019-06-20T05:18:45.561Z,19.37
2019-06-20T05:19:45.562Z,19.52
2019-06-20T05:20:45.564Z,19.29
2019-06-20T05:21:45.576Z,19.18
2019-06-20T05:22:45.568Z,19.14
2019-06-20T05:23:45.572Z,19.14
2019-06-20T05:24:45.578Z,19.08
2019-06-20T05:25:45.577Z,19.08
2019-06-20T05:26:45.584Z,19.04
2019-06-20T05:27:45.627Z,19.11
2019-06-20T05:28:45.581Z,19.07
2019-06-20T05:29:45.651Z,19.07
2019-06-20T05:30:45.586Z,19.00
2019-06-20T05:31:45.587Z,19.12
2019-06-20T05:32:45.589Z,19.02
2019-06-20T05:33:45.592Z,19.08
2019-06-20T05:34:45.594Z,19.04
2019-06-20T05:35:45.595Z,19.02
2019-06-20T05:36:45.602Z,18.99
2019-06-20T05:37:45.600Z,18.98
2019-06-20T05:38:45.601Z,19.04
2019-06-20T05:39:45.603Z,18.99
2019-06-20T05:40:45.606Z,19.08
2019-06-20T05:41:45.611Z,19.11
2019-06-20T05:42:45.641Z,19.09
2019-06-20T05:43:45.613Z,19.11
2019-06-20T05:44:45.613Z,19.22
2019-06-20T05:45:48.675Z,19.24
2019-06-20T05:46:45.618Z,19.40
2019-06-20T05:47:45.617Z,19.52
2019-06-20T05:48:45.633Z,19.37
2019-06-20T05:49:45.623Z,19.48
2019-06-20T05:50:45.625Z,19.51
2019-06-20T05:51:45.626Z,19.56
2019-06-20T05:52:45.631Z,19.55
2019-06-20T05:53:45.631Z,19.59
2019-06-20T05:54:45.636Z,19.63
2019-06-20T05:55:45.635Z,19.49
2019-06-20T05:56:45.640Z,19.27
2019-06-20T05:57:45.639Z,19.16
2019-06-20T05:58:46.018Z,19.08
2019-06-20T05:59:45.645Z,19.12
2019-06-20T06:00:45.645Z,19.15
2019-06-20T06:01:45.648Z,19.11
2019-06-20T06:02:45.660Z,19.16
2019-06-20T06:03:45.653Z,19.08
2019-06-20T06:04:45.653Z,19.16
2019-06-20T06:05:45.692Z,19.18
2019-06-20T06:06:45.660Z,19.19
2019-06-20T06:07:45.659Z,19.24
2019-06-20T06:08:45.664Z,19.24
2019-06-20T06:09:45.742Z,19.29
2019-06-20T06:10:45.666Z,19.34
2019-06-20T06:11:45.669Z,19.40
2019-06-20T06:12:45.670Z,19.27
2019-06-20T06:13:45.673Z,19.33
2019-06-20T06:14:45.679Z,19.30
2019-06-20T06:15:45.675Z,19.30
2019-06-20T06:16:45.851Z,19.40
2019-06-20T06:17:45.680Z,19.37
2019-06-20T06:18:45.686Z,19.40
2019-06-20T06:19:45.685Z,19.47
2019-06-20T06:20:45.689Z,19.44
2019-06-20T06:21:45.691Z,19.41
2019-06-20T06:22:45.694Z,19.52
2019-06-20T06:23:45.693Z,19.51
2019-06-20T06:24:45.698Z,19.51
2019-06-20T06:25:45.697Z,19.56
2019-06-20T06:26:45.702Z,19.63
2019-06-20T06:27:45.702Z,19.52
2019-06-20T06:28:45.705Z,19.62
2019-06-20T06:29:45.708Z,19.48
2019-06-20T06:30:45.709Z,19.40
2019-06-20T06:31:45.710Z,19.45
2019-06-20T06:32:45.714Z,19.63
2019-06-20T06:33:45.715Z,19.51
2019-06-20T06:34:45.722Z,19.63
2019-06-20T06:35:45.723Z,19.48
2019-06-20T06:36:45.724Z,19.49
2019-06-20T06:37:45.750Z,19.49
2019-06-20T06:38:45.727Z,19.45
2019-06-20T06:39:45.731Z,19.41
2019-06-20T06:40:45.731Z,19.48
2019-06-20T06:41:45.737Z,19.48
2019-06-20T06:42:45.782Z,19.71
2019-06-20T06:43:45.741Z,19.71
2019-06-20T06:44:45.742Z,19.85
2019-06-20T06:45:45.744Z,19.94
2019-06-20T06:46:53.149Z,19.95
2019-06-20T06:47:45.850Z,20.00
2019-06-20T06:48:45.752Z,20.09
2019-06-20T06:49:45.756Z,20.04
2019-06-20T06:50:45.757Z,20.22
2019-06-20T06:51:45.759Z,20.13
2019-06-20T06:52:45.767Z,20.34
2019-06-20T06:53:45.765Z,20.43
2019-06-20T06:54:45.775Z,20.56
2019-06-20T06:55:45.771Z,20.55
2019-06-20T06:56:45.774Z,20.62
2019-06-20T06:57:45.778Z,20.60
2019-06-20T06:58:45.779Z,20.84
2019-06-20T06:59:45.787Z,20.81
2019-06-20T07:00:45.785Z,21.07
2019-06-20T07:01:45.790Z,21.05
2019-06-20T07:02:45.798Z,21.18
2019-06-20T07:03:45.795Z,21.21
2019-06-20T07:04:45.799Z,21.45
2019-06-20T07:05:45.811Z,21.64
2019-06-20T07:06:45.806Z,21.72
2019-06-20T07:07:45.875Z,21.72
2019-06-20T07:08:45.813Z,21.75
2019-06-20T07:09:45.832Z,21.76
2019-06-20T07:10:45.821Z,21.64
2019-06-20T07:11:45.823Z,21.66
2019-06-20T07:12:45.872Z,21.37
2019-06-20T07:13:45.832Z,21.37
2019-06-20T07:14:45.857Z,21.37
2019-06-20T07:15:45.841Z,21.46
2019-06-20T07:16:59.504Z,21.54
2019-06-20T07:17:45.852Z,21.61
2019-06-20T07:18:45.854Z,21.37
2019-06-20T07:19:45.857Z,21.27
2019-06-20T07:20:45.864Z,21.25
2019-06-20T07:21:45.868Z,21.37
2019-06-20T07:22:45.869Z,21.36
2019-06-20T07:23:45.873Z,21.24
2019-06-20T07:24:45.877Z,21.07
2019-06-20T07:25:45.885Z,20.99
2019-06-20T07:26:45.886Z,20.78
2019-06-20T07:27:45.889Z,20.70
2019-06-20T07:28:45.895Z,20.69
2019-06-20T07:29:45.904Z,20.67
2019-06-20T07:30:45.904Z,20.67
2019-06-20T07:31:45.908Z,20.80
2019-06-20T07:32:45.920Z,20.93
2019-06-20T07:33:45.916Z,21.37
2019-06-20T07:34:45.921Z,22.02
2019-06-20T07:35:45.927Z,22.00
2019-06-20T07:36:45.929Z,21.92
2019-06-20T07:37:45.934Z,21.70
2019-06-20T07:38:45.940Z,21.40
2019-06-20T07:39:45.941Z,21.40
2019-06-20T07:40:45.949Z,21.37
2019-06-20T07:41:45.952Z,21.35
2019-06-20T07:42:45.958Z,21.36
2019-06-20T07:43:45.965Z,21.17
2019-06-20T07:44:45.965Z,21.07
2019-06-20T07:46:01.549Z,20.92
2019-06-20T07:46:45.973Z,20.80
2019-06-20T07:47:46.003Z,20.65
2019-06-20T07:48:45.983Z,20.52
2019-06-20T07:49:46.066Z,20.44
2019-06-20T07:50:45.991Z,20.48
2019-06-20T07:51:45.996Z,20.44
2019-06-20T07:53:00.959Z,20.51
2019-06-20T07:53:46.005Z,20.41
2019-06-20T07:54:46.008Z,20.19
2019-06-20T07:55:46.011Z,20.04
2019-06-20T07:56:46.022Z,20.09
2019-06-20T07:57:46.019Z,20.03
2019-06-20T07:58:46.030Z,20.02
2019-06-20T07:59:46.026Z,20.07
2019-06-20T08:00:46.030Z,20.24
2019-06-20T08:01:46.048Z,20.39
2019-06-20T08:02:46.039Z,20.47
2019-06-20T08:03:46.042Z,20.43
2019-06-20T08:04:46.046Z,20.62
2019-06-20T08:05:46.049Z,20.95
2019-06-20T08:06:46.052Z,21.39
2019-06-20T08:07:46.054Z,21.73
2019-06-20T08:08:46.077Z,21.69
2019-06-20T08:09:46.064Z,21.99
2019-06-20T08:10:46.070Z,22.43
2019-06-20T08:11:46.070Z,22.62
2019-06-20T08:12:46.077Z,22.98
2019-06-20T08:13:46.083Z,22.78
2019-06-20T08:14:46.086Z,22.70
2019-06-20T08:15:46.092Z,23.10
2019-06-20T08:16:46.095Z,23.43
2019-06-20T08:17:46.100Z,23.76
2019-06-20T08:18:46.105Z,23.83
2019-06-20T08:19:46.177Z,23.59
2019-06-20T08:20:46.116Z,23.48
2019-06-20T08:21:46.122Z,23.40
2019-06-20T08:22:46.130Z,22.93
2019-06-20T08:23:46.135Z,23.06
2019-06-20T08:24:46.141Z,22.65
2019-06-20T08:25:46.148Z,22.51
2019-06-20T08:26:46.154Z,22.23
2019-06-20T08:27:46.162Z,22.26
2019-06-20T08:28:46.182Z,22.62
2019-06-20T08:29:46.175Z,22.50
2019-06-20T08:30:46.182Z,22.62
2019-06-20T08:31:46.186Z,22.72
2019-06-20T08:32:46.194Z,22.65
2019-06-20T08:33:46.202Z,22.73
2019-06-20T08:34:46.208Z,22.57
2019-06-20T08:35:46.214Z,22.48
2019-06-20T08:36:46.221Z,22.35
2019-06-20T08:37:46.227Z,22.20
2019-06-20T08:38:46.237Z,22.28
2019-06-20T08:39:46.245Z,22.33
2019-06-20T08:40:46.245Z,22.26
2019-06-20T08:41:46.252Z,22.22
2019-06-20T08:42:46.260Z,21.80
2019-06-20T08:43:46.263Z,21.60
2019-06-20T08:44:46.310Z,21.42
2019-06-20T08:45:46.279Z,21.37
2019-06-20T08:46:46.283Z,21.24
2019-06-20T08:47:46.311Z,21.18
2019-06-20T08:48:46.295Z,21.25
2019-06-20T08:49:46.310Z,21.39
2019-06-20T08:50:46.305Z,21.32
2019-06-20T08:51:46.313Z,21.24
2019-06-20T08:52:46.321Z,21.32
2019-06-20T08:53:46.324Z,21.37
2019-06-20T08:54:46.327Z,21.40
2019-06-20T08:55:46.331Z,21.61
2019-06-20T08:56:46.339Z,21.46
2019-06-20T08:57:46.361Z,21.40
2019-06-20T08:58:46.348Z,21.37
2019-06-20T08:59:46.353Z,21.40
2019-06-20T09:00:46.361Z,21.48
2019-06-20T09:01:46.371Z,21.66
2019-06-20T09:02:46.372Z,21.60
2019-06-20T09:03:46.372Z,21.73
2019-06-20T09:04:46.376Z,21.75
2019-06-20T09:05:46.381Z,21.92
2019-06-20T09:06:49.211Z,21.96
2019-06-20T09:07:46.390Z,22.15
2019-06-20T09:08:46.396Z,22.38
2019-06-20T09:09:46.401Z,22.54
2019-06-20T09:10:46.405Z,22.78
2019-06-20T09:11:46.410Z,22.84
2019-06-20T09:12:46.415Z,22.87
2019-06-20T09:13:46.428Z,22.83
2019-06-20T09:14:46.425Z,22.78
2019-06-20T09:15:46.429Z,22.73
2019-06-20T09:16:46.435Z,22.72
2019-06-20T09:17:46.441Z,22.76
2019-06-20T09:18:46.452Z,22.80
2019-06-20T09:19:46.451Z,22.75
2019-06-20T09:20:46.456Z,22.55
2019-06-20T09:21:46.470Z,22.54
2019-06-20T09:22:46.465Z,22.50
2019-06-20T09:23:46.477Z,22.51
2019-06-20T09:24:46.475Z,22.70
2019-06-20T09:25:46.482Z,22.81
2019-06-20T09:26:46.487Z,23.09
2019-06-20T09:27:46.496Z,23.20
2019-06-20T09:28:46.499Z,24.26
2019-06-20T09:29:46.503Z,24.99
2019-06-20T09:30:46.512Z,25.36
2019-06-20T09:31:46.516Z,25.80
2019-06-20T09:32:46.520Z,25.70
2019-06-20T09:33:46.530Z,25.17
2019-06-20T09:34:46.533Z,24.47
2019-06-20T09:35:46.550Z,24.28
2019-06-20T09:36:46.552Z,24.16
2019-06-20T09:37:46.551Z,24.11
2019-06-20T09:38:46.566Z,23.91
2019-06-20T09:39:46.565Z,23.81
2019-06-20T09:40:46.571Z,23.91
2019-06-20T09:41:46.579Z,24.14
2019-06-20T09:42:46.587Z,24.40
2019-06-20T09:43:46.593Z,24.55
2019-06-20T09:44:46.603Z,24.32
2019-06-20T09:45:46.639Z,23.80
2019-06-20T09:46:46.623Z,23.83
2019-06-20T09:47:46.649Z,23.76
2019-06-20T09:48:46.629Z,23.80
2019-06-20T09:49:49.181Z,23.81
2019-06-20T09:50:49.370Z,23.95
2019-06-20T09:51:48.590Z,24.47
2019-06-20T09:52:49.753Z,24.95
2019-06-20T09:53:48.374Z,25.17
2019-06-20T09:54:48.518Z,25.28
2019-06-20T09:55:48.221Z,25.23
2019-06-20T09:56:48.494Z,25.85
2019-06-20T09:57:47.331Z,25.69
2019-06-20T09:58:47.861Z,25.62
2019-06-20T09:59:58.992Z,25.29
2019-06-20T10:00:47.725Z,24.73
2019-06-20T10:01:47.758Z,24.36
2019-06-20T10:02:48.602Z,24.20
2019-06-20T10:03:47.865Z,24.76
2019-06-20T10:04:47.875Z,25.66
2019-06-20T10:05:47.678Z,25.77
2019-06-20T10:06:47.422Z,25.13
2019-06-20T10:07:47.264Z,24.95
2019-06-20T10:08:48.031Z,24.93
2019-06-20T10:09:48.157Z,25.07
2019-06-20T10:10:48.920Z,25.11
2019-06-20T10:11:47.928Z,24.42
2019-06-20T10:12:47.858Z,24.20
2019-06-20T10:13:48.129Z,23.98
2019-06-20T10:14:47.968Z,23.92
2019-06-20T10:15:47.847Z,24.30
2019-06-20T10:16:50.334Z,25.07
2019-06-20T10:17:47.383Z,24.61
2019-06-20T10:18:48.169Z,24.57
2019-06-20T10:19:48.282Z,24.74
2019-06-20T10:20:47.255Z,25.48
2019-06-20T10:21:47.779Z,25.68
2019-06-20T10:22:47.340Z,25.58
2019-06-20T10:23:47.735Z,25.33
2019-06-20T10:24:47.435Z,24.48
2019-06-20T10:25:47.814Z,24.13
2019-06-20T10:26:48.020Z,23.81
2019-06-20T10:27:48.294Z,23.83
2019-06-20T10:28:47.688Z,23.83
2019-06-20T10:29:47.594Z,24.08
2019-06-20T10:30:46.965Z,24.08
2019-06-20T10:31:47.915Z,23.87
2019-06-20T10:32:46.980Z,24.55
2019-06-20T10:33:48.362Z,24.93
2019-06-20T10:34:48.286Z,25.50
2019-06-20T10:35:48.341Z,26.06
2019-06-20T10:36:48.038Z,26.06
2019-06-20T10:37:48.368Z,25.90
2019-06-20T10:38:48.001Z,25.21
2019-06-20T10:39:47.763Z,25.26
2019-06-20T10:40:47.898Z,24.88
2019-06-20T10:41:48.469Z,24.66
2019-06-20T10:42:48.057Z,24.55
2019-06-20T10:43:47.578Z,24.39
2019-06-20T10:44:47.674Z,24.11
2019-06-20T10:45:47.394Z,23.92
2019-06-20T10:46:47.342Z,23.91
2019-06-20T10:47:47.303Z,24.95
2019-06-20T10:48:47.917Z,25.38
2019-06-20T10:49:47.792Z,25.44
2019-06-20T10:50:47.712Z,25.68
2019-06-20T10:51:47.631Z,26.09
2019-06-20T10:52:48.078Z,26.44
2019-06-20T10:53:47.188Z,26.37
2019-06-20T10:54:47.163Z,26.07
2019-06-20T10:55:47.186Z,26.19
2019-06-20T10:56:47.295Z,25.88
2019-06-20T10:57:47.461Z,26.02
2019-06-20T10:58:48.377Z,26.36
2019-06-20T10:59:48.406Z,26.37
2019-06-20T11:00:48.283Z,25.87
2019-06-20T11:01:48.283Z,25.25
2019-06-20T11:02:47.233Z,24.88
2019-06-20T11:03:47.820Z,24.80
2019-06-20T11:04:47.742Z,24.65
2019-06-20T11:05:48.141Z,24.50
2019-06-20T11:06:47.648Z,24.58
2019-06-20T11:07:47.630Z,25.17
2019-06-20T11:08:47.300Z,25.41
2019-06-20T11:09:47.295Z,25.73
2019-06-20T11:10:47.302Z,25.58
2019-06-20T11:11:47.308Z,25.47
2019-06-20T11:12:52.420Z,25.43
2019-06-20T11:13:48.536Z,24.93
2019-06-20T11:14:48.400Z,24.88
2019-06-20T11:15:48.289Z,25.08
2019-06-20T11:16:47.354Z,24.95
2019-06-20T11:17:48.373Z,24.85
2019-06-20T11:18:48.724Z,24.70
2019-06-20T11:19:48.054Z,24.58
2019-06-20T11:20:48.679Z,24.30
2019-06-20T11:21:47.706Z,24.16
2019-06-20T11:22:47.772Z,23.98
2019-06-20T11:23:47.497Z,23.81
2019-06-20T11:24:47.509Z,23.91
2019-06-20T11:25:48.337Z,23.74
2019-06-20T11:26:47.929Z,23.54
2019-06-20T11:27:47.562Z,23.66
2019-06-20T11:28:48.649Z,23.65
2019-06-20T11:29:47.453Z,23.51
2019-06-20T11:30:58.150Z,23.50
2019-06-20T11:31:48.281Z,23.51
2019-06-20T11:32:48.766Z,23.40
2019-06-20T11:33:48.351Z,23.37
2019-06-20T11:34:47.592Z,23.40
2019-06-20T11:35:47.985Z,23.69
2019-06-20T11:36:47.495Z,23.77
2019-06-20T11:37:47.504Z,23.96
2019-06-20T11:38:49.114Z,23.86
2019-06-20T11:39:47.515Z,24.06
2019-06-20T11:40:48.175Z,24.26
2019-06-20T11:41:48.529Z,24.21
2019-06-20T11:42:47.534Z,24.13
2019-06-20T11:43:47.541Z,24.18
2019-06-20T11:44:47.549Z,24.13
2019-06-20T11:45:47.553Z,24.03
2019-06-20T11:46:47.560Z,23.98
2019-06-20T11:47:47.566Z,24.05
2019-06-20T11:48:47.572Z,23.80
2019-06-20T11:49:47.581Z,23.87
2019-06-20T11:50:47.590Z,23.92
2019-06-20T11:51:47.668Z,24.08
2019-06-20T11:52:47.601Z,24.08
2019-06-20T11:53:47.603Z,23.78
2019-06-20T11:54:47.612Z,23.68
2019-06-20T11:55:47.617Z,23.62
2019-06-20T11:56:47.626Z,23.65
2019-06-20T11:57:47.628Z,23.73
2019-06-20T11:58:47.637Z,23.87
2019-06-20T11:59:47.641Z,23.95
2019-06-20T12:01:02.614Z,23.86
2019-06-20T12:01:48.996Z,23.92
2019-06-20T12:02:48.258Z,24.02
2019-06-20T12:03:48.912Z,23.96
2019-06-20T12:04:47.671Z,23.98
2019-06-20T12:05:47.677Z,23.83
2019-06-20T12:06:47.683Z,23.98
2019-06-20T12:07:48.008Z,23.88
2019-06-20T12:08:48.985Z,23.77
2019-06-20T12:09:48.978Z,23.86
2019-06-20T12:10:47.709Z,23.83
2019-06-20T12:11:48.786Z,23.92
2019-06-20T12:12:48.992Z,23.81
2019-06-20T12:13:48.553Z,23.91
2019-06-20T12:14:48.600Z,24.05
2019-06-20T12:15:48.907Z,24.10
2019-06-20T12:16:48.685Z,24.05
2019-06-20T12:17:49.143Z,23.96
2019-06-20T12:18:47.756Z,23.99
2019-06-20T12:19:48.733Z,24.02
2019-06-20T12:20:48.731Z,24.03
2019-06-20T12:21:49.013Z,24.10
2019-06-20T12:22:50.519Z,24.17
2019-06-20T12:23:48.969Z,24.24
2019-06-20T12:24:48.818Z,24.23
2019-06-20T12:25:48.770Z,24.20
2019-06-20T12:26:48.636Z,24.21
2019-06-20T12:27:47.869Z,24.24
2019-06-20T12:28:48.671Z,24.01
2019-06-20T12:29:49.347Z,23.98
2019-06-20T12:30:48.358Z,24.23
2019-06-20T12:31:48.462Z,24.28
2019-06-20T12:32:49.170Z,24.40
2019-06-20T12:33:47.851Z,24.43
2019-06-20T12:34:48.955Z,24.45
2019-06-20T12:35:48.712Z,24.58
2019-06-20T12:36:48.599Z,24.45
2019-06-20T12:37:48.110Z,24.38
2019-06-20T12:38:48.367Z,24.16
2019-06-20T12:39:48.669Z,24.05
2019-06-20T12:40:47.896Z,23.76
2019-06-20T12:41:47.900Z,23.86
2019-06-20T12:42:49.136Z,23.92
2019-06-20T12:43:48.301Z,24.01
2019-06-20T12:44:47.919Z,23.91
2019-06-20T12:45:47.925Z,23.88
2019-06-20T12:46:49.019Z,23.80
2019-06-20T12:47:47.936Z,23.88
2019-06-20T12:48:49.160Z,24.01
2019-06-20T12:49:47.949Z,24.05
2019-06-20T12:50:47.956Z,23.99
2019-06-20T12:51:49.004Z,23.99
2019-06-20T12:52:49.527Z,24.05